Time,TemperatureF,DewpointF,PressureIn,WindDirection,WindDirectionDegrees,WindSpeedMPH,WindSpeedGustMPH,Humidity,HourlyPrecipIn,Conditions,Clouds,dailyrainin,SolarRadiationWatts/m^2,SoftwareType,DateUTC
2013-01-03 00:03:00,32.1,27.5,30.19,ENE,68,19.1,19.6,83,0.00,CLR,,0.00,0.0,WeatherDisplay:10.37,2013-01-03 08:03:00,
2013-01-03 00:08:00,32.1,27.5,30.19,NE,46,18.6,19.6,83,0.00,CLR,,0.00,0.0,WeatherDisplay:10.37,2013-01-03 08:08:00,
2013-01-03 00:14:00,32.1,27.5,30.19,NE,53,15.9,17.3,83,0.00,CLR,,0.00,0.0,WeatherDisplay:10.37,2013-01-03 08:14:00,
2013-01-03 00:18:00,32.1,27.5,30.19,ENE,60,14.8,17.3,83,0.00,CLR,,0.00,0.0,WeatherDisplay:10.37,2013-01-03 08:18:00,
2013-01-03 00:24:00,32.1,27.5,30.19,ENE,72,14.5,18.4,83,0.00,CLR,,0.00,0.0,WeatherDisplay:10.37,2013-01-03 08:24:00,
2013-01-03 00:29:00,32.0,27.4,30.19,ENE,59,10.9,11.5,83,0.00,CLR,,0.00,0.0,WeatherDisplay:10.37,2013-01-03 08:29:00,
2013-01-03 00:34:00,32.0,27.4,30.19,ENE,67,14.8,16.1,83,0.00,CLR,,0.00,0.0,WeatherDisplay:10.37,2013-01-03 08:34:00,
2013-01-03 00:39:00,32.0,27.4,30.19,NE,55,16.1,18.4,83,0.00,CLR,,0.00,0.0,WeatherDisplay:10.37,2013-01-03 08:39:00,
2013-01-03 00:44:00,32.0,27.4,30.19,ENE,66,16.0,18.4,83,0.00,CLR,,0.00,0.0,WeatherDisplay:10.37,2013-01-03 08:44:00,
2013-01-03 00:49:00,31.9,27.3,30.19,NE,56,14.5,15.0,83,0.00,CLR,,0.00,0.0,WeatherDisplay:10.37,2013-01-03 08:49:00,
2013-01-03 00:54:00,31.9,27.3,30.19,ENE,72,16.0,18.4,83,0.00,CLR,,0.00,0.0,WeatherDisplay:10.37,2013-01-03 08:54:00,
2013-01-03 00:59:00,32.0,27.4,30.19,ENE,67,16.4,17.3,83,0.00,CLR,,0.00,0.0,WeatherDisplay:10.37,2013-01-03 08:59:00,
2013-01-03 01:04:00,32.0,27.4,30.19,ENE,69,16.4,18.4,83,0.00,CLR,,0.00,0.0,WeatherDisplay:10.37,2013-01-03 09:04:00,
2013-01-03 01:09:00,32.1,27.5,30.19,ENE,61,16.7,21.9,83,0.00,CLR,,0.00,0.0,WeatherDisplay:10.37,2013-01-03 09:09:00,
2013-01-03 01:14:00,32.1,27.5,30.18,ENE,69,16.0,18.1,83,0.00,CLR,,0.00,0.0,WeatherDisplay:10.37,2013-01-03 09:14:00,
2013-01-03 01:19:00,32.1,27.5,30.18,ENE,66,20.0,21.9,83,0.00,CLR,,0.00,0.0,WeatherDisplay:10.37,2013-01-03 09:19:00,
2013-01-03 01:24:00,32.2,27.6,30.18,ENE,68,17.7,20.7,83,0.00,CLR,,0.00,0.0,WeatherDisplay:10.37,2013-01-03 09:24:00,
2013-01-03 01:29:00,32.3,27.4,30.18,ENE,77,14.1,16.1,82,0.00,CLR,,0.00,0.0,WeatherDisplay:10.37,2013-01-03 09:29:00,
2013-01-03 01:34:00,32.4,27.5,30.18,East,90,16.3,18.4,82,0.00,CLR,,0.00,0.0,WeatherDisplay:10.37,2013-01-03 09:34:00,
2013-01-03 01:39:00,32.4,27.5,30.18,ENE,75,16.5,18.4,82,0.00,CLR,,0.00,0.0,WeatherDisplay:10.37,2013-01-03 09:39:00,
2013-01-03 01:44:00,32.5,27.6,30.18,East,84,17.6,19.6,82,0.00,CLR,,0.00,0.0,WeatherDisplay:10.37,2013-01-03 09:44:00,
2013-01-03 01:49:00,32.6,27.7,30.17,ENE,69,16.6,21.9,82,0.00,CLR,,0.00,0.0,WeatherDisplay:10.37,2013-01-03 09:49:00,
2013-01-03 01:54:00,32.7,27.8,30.17,ENE,57,19.2,19.6,82,0.00,CLR,,0.00,0.0,WeatherDisplay:10.37,2013-01-03 09:54:00,
2013-01-03 01:59:00,32.8,27.6,30.18,NE,55,21.0,21.0,81,0.00,CLR,,0.00,0.0,WeatherDisplay:10.37,2013-01-03 09:59:00,
2013-01-03 02:04:00,32.8,27.6,30.18,NE,46,24.9,24.9,81,0.00,CLR,,0.00,0.0,WeatherDisplay:10.37,2013-01-03 10:04:00,
2013-01-03 02:09:00,33.0,27.8,30.18,ENE,57,21.1,24.2,81,0.00,CLR,,0.00,0.0,WeatherDisplay:10.37,2013-01-03 10:09:00,
2013-01-03 02:14:00,33.0,27.5,30.18,ENE,57,23.8,24.2,80,0.00,CLR,,0.00,0.0,WeatherDisplay:10.37,2013-01-03 10:14:00,
2013-01-03 02:19:00,33.1,27.6,30.18,ENE,57,25.1,25.1,80,0.00,CLR,,0.00,0.0,WeatherDisplay:10.37,2013-01-03 10:19:00,
2013-01-03 02:24:00,33.1,27.6,30.19,ENE,58,21.3,23.0,80,0.00,CLR,,0.00,0.0,WeatherDisplay:10.37,2013-01-03 10:24:00,
2013-01-03 02:29:00,33.0,27.5,30.19,ENE,58,14.8,17.3,80,0.00,CLR,,0.00,0.0,WeatherDisplay:10.37,2013-01-03 10:29:00,
2013-01-03 02:34:00,32.9,27.4,30.19,ENE,61,13.7,16.1,80,0.00,CLR,,0.00,0.0,WeatherDisplay:10.37,2013-01-03 10:34:00,
2013-01-03 02:39:00,32.8,27.3,30.19,ENE,57,9.5,13.8,80,0.00,CLR,,0.00,0.0,WeatherDisplay:10.37,2013-01-03 10:39:00,
2013-01-03 02:44:00,32.7,27.2,30.19,ENE,67,8.6,12.7,80,0.00,CLR,,0.00,0.0,WeatherDisplay:10.37,2013-01-03 10:44:00,
2013-01-03 02:49:00,32.6,27.1,30.19,East,92,5.0,6.9,80,0.00,CLR,,0.00,0.0,WeatherDisplay:10.37,2013-01-03 10:49:00,
2013-01-03 02:54:00,32.5,27.0,30.19,East,87,7.3,10.4,80,0.00,CLR,,0.00,0.0,WeatherDisplay:10.37,2013-01-03 10:54:00,
2013-01-03 02:59:00,32.4,26.9,30.19,East,91,11.7,15.0,80,0.00,CLR,,0.00,0.0,WeatherDisplay:10.37,2013-01-03 10:59:00,
2013-01-03 03:04:00,32.4,26.9,30.19,ENE,62,9.0,11.5,80,0.00,CLR,,0.00,0.0,WeatherDisplay:10.37,2013-01-03 11:04:00,
2013-01-03 03:09:00,32.4,26.9,30.19,NE,54,10.7,13.8,80,0.00,CLR,,0.00,0.0,WeatherDisplay:10.37,2013-01-03 11:09:00,
2013-01-03 03:14:00,32.5,27.3,30.18,NE,49,12.9,19.6,81,0.00,CLR,,0.00,0.0,WeatherDisplay:10.37,2013-01-03 11:14:00,
2013-01-03 03:19:00,32.6,27.4,30.18,ENE,60,13.6,16.1,81,0.00,CLR,,0.00,0.0,WeatherDisplay:10.37,2013-01-03 11:19:00,
2013-01-03 03:24:00,32.6,27.4,30.18,ENE,77,11.8,18.4,81,0.00,CLR,,0.00,0.0,WeatherDisplay:10.37,2013-01-03 11:24:00,
2013-01-03 03:29:00,32.6,27.4,30.17,NE,47,9.1,12.7,81,0.00,CLR,,0.00,0.0,WeatherDisplay:10.37,2013-01-03 11:29:00,
2013-01-03 03:34:00,32.5,27.0,30.17,ENE,72,10.8,15.0,80,0.00,CLR,,0.00,0.0,WeatherDisplay:10.37,2013-01-03 11:34:00,
2013-01-03 03:39:00,32.4,26.9,30.17,ENE,73,13.6,18.4,80,0.00,CLR,,0.00,0.0,WeatherDisplay:10.37,2013-01-03 11:39:00,
2013-01-03 03:44:00,32.3,26.8,30.17,East,86,12.4,18.4,80,0.00,CLR,,0.00,0.0,WeatherDisplay:10.37,2013-01-03 11:44:00,
2013-01-03 03:49:00,32.2,26.7,30.17,East,90,12.3,15.0,80,0.00,CLR,,0.00,0.0,WeatherDisplay:10.37,2013-01-03 11:49:00,
2013-01-03 03:54:00,32.1,26.9,30.17,NE,51,10.7,13.8,81,0.00,CLR,,0.00,0.0,WeatherDisplay:10.37,2013-01-03 11:54:00,
2013-01-03 03:55:00,30.8,26.3,30.14,ENE,78,14.0,21.0,83,0.00,CLR,,0.00,0.0,WeatherDisplay:10.37,2013-01-03 11:55:00,
2013-01-03 03:59:00,32.0,26.8,30.17,East,79,11.5,15.0,81,0.00,CLR,,0.00,0.0,WeatherDisplay:10.37,2013-01-03 11:59:00,
2013-01-03 04:04:00,31.9,26.8,30.16,East,90,12.1,13.8,81,0.00,CLR,,0.00,0.0,WeatherDisplay:10.37,2013-01-03 12:04:00,
2013-01-03 04:09:00,31.9,26.8,30.16,East,80,9.2,11.5,81,0.00,CLR,,0.00,0.0,WeatherDisplay:10.37,2013-01-03 12:09:00,
2013-01-03 04:14:00,31.8,26.7,30.16,East,90,10.8,12.7,81,0.00,CLR,,0.00,0.0,WeatherDisplay:10.37,2013-01-03 12:14:00,
2013-01-03 04:19:00,31.7,26.6,30.15,ENE,57,17.1,17.1,81,0.00,CLR,,0.00,0.0,WeatherDisplay:10.37,2013-01-03 12:19:00,
2013-01-03 04:24:00,31.7,26.6,30.16,ENE,71,13.0,16.1,81,0.00,CLR,,0.00,0.0,WeatherDisplay:10.37,2013-01-03 12:24:00,
2013-01-03 04:29:00,31.7,26.6,30.16,SSE,148,8.8,11.5,81,0.00,CLR,,0.00,0.0,WeatherDisplay:10.37,2013-01-03 12:29:00,
2013-01-03 04:34:00,31.5,26.4,30.16,ESE,121,11.1,11.5,81,0.00,CLR,,0.00,0.0,WeatherDisplay:10.37,2013-01-03 12:34:00,
2013-01-03 04:39:00,31.1,26.0,30.15,East,99,8.0,8.0,81,0.00,CLR,,0.00,0.0,WeatherDisplay:10.37,2013-01-03 12:39:00,
2013-01-03 04:44:00,30.8,26.0,30.15,ENE,67,8.6,12.7,82,0.00,CLR,,0.00,0.0,WeatherDisplay:10.37,2013-01-03 12:44:00,
2013-01-03 04:50:00,30.7,25.9,30.14,East,87,15.1,18.4,82,0.00,CLR,,0.00,0.0,WeatherDisplay:10.37,2013-01-03 12:50:00,
2013-01-03 04:56:00,30.7,26.2,30.14,ENE,75,21.8,21.8,83,0.00,CLR,,0.00,0.0,WeatherDisplay:10.37,2013-01-03 12:56:00,
2013-01-03 05:01:00,30.7,26.2,30.14,ENE,65,13.3,17.3,83,0.00,CLR,,0.00,0.0,WeatherDisplay:10.37,2013-01-03 13:01:00,
2013-01-03 05:06:00,30.7,26.2,30.14,ENE,67,7.8,11.5,83,0.00,CLR,,0.00,0.0,WeatherDisplay:10.37,2013-01-03 13:06:00,
2013-01-03 05:11:00,30.6,25.8,30.14,ENE,76,9.3,15.8,82,0.00,CLR,,0.00,0.0,WeatherDisplay:10.37,2013-01-03 13:11:00,
2013-01-03 05:16:00,30.6,25.8,30.14,ENE,78,11.5,12.7,82,0.00,CLR,,0.00,0.0,WeatherDisplay:10.37,2013-01-03 13:16:00,
2013-01-03 05:21:00,30.5,25.7,30.14,East,92,9.1,13.8,82,0.00,CLR,,0.00,0.0,WeatherDisplay:10.37,2013-01-03 13:21:00,
2013-01-03 05:26:00,30.5,25.7,30.14,East,83,13.0,13.0,82,0.00,CLR,,0.00,0.0,WeatherDisplay:10.37,2013-01-03 13:26:00,
2013-01-03 05:31:00,30.5,26.0,30.14,ESE,116,7.3,12.7,83,0.00,CLR,,0.00,0.0,WeatherDisplay:10.37,2013-01-03 13:31:00,
2013-01-03 05:36:00,30.3,25.8,30.14,ESE,117,9.2,11.5,83,0.00,CLR,,0.00,0.0,WeatherDisplay:10.37,2013-01-03 13:36:00,
2013-01-03 05:41:00,30.1,25.6,30.13,ESE,102,6.6,8.1,83,0.00,CLR,,0.00,0.0,WeatherDisplay:10.37,2013-01-03 13:41:00,
2013-01-03 05:47:00,29.9,25.4,30.13,SE,136,5.1,6.9,83,0.00,CLR,,0.00,0.0,WeatherDisplay:10.37,2013-01-03 13:47:00,
2013-01-03 05:51:00,29.8,25.6,30.13,East,92,12.9,13.8,84,0.00,CLR,,0.00,0.0,WeatherDisplay:10.37,2013-01-03 13:51:00,
2013-01-03 05:57:00,29.7,25.5,30.13,ENE,69,16.1,17.3,84,0.00,CLR,,0.00,0.0,WeatherDisplay:10.37,2013-01-03 13:57:00,
2013-01-03 06:02:00,29.6,25.4,30.12,ENE,61,14.7,17.3,84,0.00,CLR,,0.00,0.0,WeatherDisplay:10.37,2013-01-03 14:02:00,
2013-01-03 06:07:00,29.7,25.8,30.12,East,81,19.4,20.7,85,0.00,CLR,,0.00,0.0,WeatherDisplay:10.37,2013-01-03 14:07:00,
2013-01-03 06:12:00,29.8,25.9,30.12,ENE,70,17.8,20.7,85,0.00,CLR,,0.00,0.0,WeatherDisplay:10.37,2013-01-03 14:12:00,
2013-01-03 06:17:00,30.0,26.1,30.12,East,93,19.1,19.6,85,0.00,CLR,,0.00,0.0,WeatherDisplay:10.37,2013-01-03 14:17:00,
2013-01-03 06:22:00,30.2,26.0,30.11,ENE,78,17.1,19.6,84,0.00,CLR,,0.00,0.0,WeatherDisplay:10.37,2013-01-03 14:22:00,
2013-01-03 06:27:00,30.3,26.1,30.11,ENE,57,15.2,18.4,84,0.00,CLR,,0.00,0.0,WeatherDisplay:10.37,2013-01-03 14:27:00,
2013-01-03 06:32:00,30.3,25.8,30.11,NE,52,12.0,13.8,83,0.00,CLR,,0.00,0.0,WeatherDisplay:10.37,2013-01-03 14:32:00,
2013-01-03 06:37:00,30.3,25.8,30.11,ENE,73,14.4,16.1,83,0.00,CLR,,0.00,0.0,WeatherDisplay:10.37,2013-01-03 14:37:00,
2013-01-03 06:42:00,30.3,25.8,30.11,ENE,57,13.1,13.8,83,0.00,CLR,,0.00,0.0,WeatherDisplay:10.37,2013-01-03 14:42:00,
2013-01-03 06:47:00,30.2,25.7,30.11,ENE,66,13.2,15.0,83,0.00,CLR,,0.00,0.0,WeatherDisplay:10.37,2013-01-03 14:47:00,
2013-01-03 06:52:00,30.2,25.7,30.11,ENE,69,16.1,17.3,83,0.00,CLR,,0.00,0.0,WeatherDisplay:10.37,2013-01-03 14:52:00,
2013-01-03 06:57:00,30.2,25.7,30.11,ENE,61,16.1,18.4,83,0.00,CLR,,0.00,0.0,WeatherDisplay:10.37,2013-01-03 14:57:00,
2013-01-03 07:02:00,30.1,25.6,30.11,ENE,64,11.3,12.7,83,0.00,CLR,,0.00,0.0,WeatherDisplay:10.37,2013-01-03 15:02:00,
2013-01-03 07:07:00,30.2,25.7,30.11,East,95,4.5,5.8,83,0.00,CLR,,0.00,0.0,WeatherDisplay:10.37,2013-01-03 15:07:00,
2013-01-03 07:12:00,30.2,25.7,30.11,ESE,111,2.4,6.9,83,0.00,CLR,,0.00,0.0,WeatherDisplay:10.37,2013-01-03 15:12:00,
2013-01-03 07:17:00,30.3,25.8,30.11,East,93,6.4,6.9,83,0.00,CLR,,0.00,0.0,WeatherDisplay:10.37,2013-01-03 15:17:00,
2013-01-03 07:22:00,30.3,25.8,30.11,ENE,78,1.0,2.3,83,0.00,CLR,,0.00,0.0,WeatherDisplay:10.37,2013-01-03 15:22:00,
2013-01-03 07:27:00,30.3,25.8,30.11,ESE,113,2.0,3.5,83,0.00,CLR,,0.00,0.0,WeatherDisplay:10.37,2013-01-03 15:27:00,
2013-01-03 07:32:00,30.2,25.7,30.11,ESE,115,2.4,3.5,83,0.00,CLR,,0.00,0.0,WeatherDisplay:10.37,2013-01-03 15:32:00,
2013-01-03 07:37:00,30.2,25.4,30.11,East,87,4.9,6.9,82,0.00,CLR,,0.00,0.0,WeatherDisplay:10.37,2013-01-03 15:37:00,
2013-01-03 07:42:00,30.1,25.3,30.11,ENE,72,9.3,10.4,82,0.00,CLR,,0.00,0.0,WeatherDisplay:10.37,2013-01-03 15:42:00,
2013-01-03 07:47:00,30.0,25.5,30.11,ENE,69,10.2,10.4,83,0.00,CLR,,0.00,5.8,WeatherDisplay:10.37,2013-01-03 15:47:00,
2013-01-03 07:52:00,29.9,25.4,30.11,ENE,74,11.9,13.8,83,0.00,CLR,,0.00,5.8,WeatherDisplay:10.37,2013-01-03 15:52:00,
2013-01-03 07:57:00,29.9,25.4,30.10,ENE,73,10.7,11.3,83,0.00,CLR,,0.00,8.0,WeatherDisplay:10.37,2013-01-03 15:57:00,
2013-01-03 08:02:00,29.9,25.4,30.11,ENE,78,10.3,11.5,83,0.00,CLR,,0.00,10.4,WeatherDisplay:10.37,2013-01-03 16:02:00,
2013-01-03 08:07:00,29.9,25.4,30.11,East,90,13.0,13.8,83,0.00,CLR,,0.00,12.6,WeatherDisplay:10.37,2013-01-03 16:07:00,
2013-01-03 08:12:00,30.0,25.5,30.11,East,80,11.6,11.6,83,0.00,CLR,,0.00,13.8,WeatherDisplay:10.37,2013-01-03 16:12:00,
2013-01-03 08:17:00,30.0,25.5,30.11,East,84,6.5,7.9,83,0.00,CLR,,0.00,18.4,WeatherDisplay:10.37,2013-01-03 16:17:00,
2013-01-03 08:22:00,29.9,25.4,30.11,ENE,63,11.6,11.6,83,0.00,CLR,,0.00,24.2,WeatherDisplay:10.37,2013-01-03 16:22:00,
2013-01-03 08:27:00,30.0,25.8,30.11,ENE,62,14.5,15.0,84,0.00,CLR,,0.00,29.9,WeatherDisplay:10.37,2013-01-03 16:27:00,
2013-01-03 08:32:00,30.0,25.8,30.10,ENE,59,15.0,17.3,84,0.00,CLR,,0.00,36.8,WeatherDisplay:10.37,2013-01-03 16:32:00,
2013-01-03 08:37:00,30.1,25.9,30.10,NE,43,17.0,20.7,84,0.00,CLR,,0.00,44.8,WeatherDisplay:10.37,2013-01-03 16:37:00,
2013-01-03 08:42:00,30.2,26.0,30.10,ENE,71,14.0,17.3,84,0.00,CLR,,0.00,54.0,WeatherDisplay:10.37,2013-01-03 16:42:00,
2013-01-03 08:47:00,30.3,26.1,30.10,NE,56,12.5,15.0,84,0.00,CLR,,0.00,62.1,WeatherDisplay:10.37,2013-01-03 16:47:00,
2013-01-03 08:52:00,30.3,26.1,30.11,ENE,73,12.2,12.7,84,0.00,CLR,,0.00,72.4,WeatherDisplay:10.37,2013-01-03 16:52:00,
2013-01-03 08:57:00,30.4,26.2,30.11,ENE,75,12.9,15.0,84,0.00,CLR,,0.00,85.1,WeatherDisplay:10.37,2013-01-03 16:57:00,
2013-01-03 09:02:00,30.6,26.4,30.11,ENE,69,11.3,15.0,84,0.00,CLR,,0.00,95.4,WeatherDisplay:10.37,2013-01-03 17:02:00,
2013-01-03 09:07:00,30.7,26.5,30.11,ENE,78,10.1,13.8,84,0.00,CLR,,0.00,106.9,WeatherDisplay:10.37,2013-01-03 17:07:00,
2013-01-03 09:12:00,30.9,26.7,30.11,East,86,13.0,13.8,84,0.00,CLR,,0.00,119.6,WeatherDisplay:10.37,2013-01-03 17:12:00,
2013-01-03 09:17:00,31.2,26.9,30.11,East,84,12.6,13.8,84,0.00,CLR,,0.00,129.9,WeatherDisplay:10.37,2013-01-03 17:17:00,
2013-01-03 09:22:00,31.4,26.9,30.11,ENE,78,11.0,12.4,83,0.00,CLR,,0.00,139.1,WeatherDisplay:10.37,2013-01-03 17:22:00,
2013-01-03 09:28:00,31.6,27.0,30.11,East,79,10.7,13.8,83,0.00,CLR,,0.00,149.5,WeatherDisplay:10.37,2013-01-03 17:28:00,
2013-01-03 09:33:00,31.7,27.1,30.11,East,82,10.4,11.5,83,0.00,CLR,,0.00,159.9,WeatherDisplay:10.37,2013-01-03 17:33:00,
2013-01-03 09:38:00,31.9,27.3,30.11,East,84,5.9,8.1,83,0.00,CLR,,0.00,171.4,WeatherDisplay:10.37,2013-01-03 17:38:00,
2013-01-03 09:43:00,31.9,27.3,30.12,East,100,5.5,6.9,83,0.00,CLR,,0.00,179.4,WeatherDisplay:10.37,2013-01-03 17:43:00,
2013-01-03 09:48:00,32.2,27.6,30.12,East,93,7.1,8.1,83,0.00,CLR,,0.00,189.7,WeatherDisplay:10.37,2013-01-03 17:48:00,
2013-01-03 09:53:00,32.4,27.8,30.12,East,84,7.6,8.1,83,0.00,CLR,,0.00,200.1,WeatherDisplay:10.37,2013-01-03 17:53:00,
2013-01-03 09:58:00,32.5,27.9,30.11,East,83,6.1,6.9,83,0.00,CLR,,0.00,210.4,WeatherDisplay:10.37,2013-01-03 17:58:00,
2013-01-03 10:03:00,32.7,28.1,30.12,ENE,78,9.0,11.5,83,0.00,CLR,,0.00,220.8,WeatherDisplay:10.37,2013-01-03 18:03:00,
2013-01-03 10:08:00,32.7,28.1,30.12,East,84,6.9,8.1,83,0.00,CLR,,0.00,228.9,WeatherDisplay:10.37,2013-01-03 18:08:00,
2013-01-03 10:13:00,32.9,28.3,30.12,East,83,6.8,8.1,83,0.00,CLR,,0.00,238.0,WeatherDisplay:10.37,2013-01-03 18:13:00,
2013-01-03 10:18:00,33.1,28.5,30.13,ESE,113,3.5,4.6,83,0.00,CLR,,0.00,245.0,WeatherDisplay:10.37,2013-01-03 18:18:00,
2013-01-03 10:23:00,33.4,28.8,30.13,ESE,104,5.9,6.9,83,0.00,CLR,,0.00,254.1,WeatherDisplay:10.37,2013-01-03 18:23:00,
2013-01-03 10:28:00,33.7,29.1,30.13,ESE,107,5.1,6.9,83,0.00,CLR,,0.00,263.3,WeatherDisplay:10.37,2013-01-03 18:28:00,
2013-01-03 10:33:00,34.0,29.4,30.13,East,86,3.8,5.7,83,0.00,CLR,,0.00,271.4,WeatherDisplay:10.37,2013-01-03 18:33:00,
2013-01-03 10:38:00,34.5,29.6,30.13,ESE,105,6.8,8.1,82,0.00,CLR,,0.00,279.4,WeatherDisplay:10.37,2013-01-03 18:38:00,
2013-01-03 10:43:00,34.8,29.9,30.13,East,83,5.9,9.0,82,0.00,CLR,,0.00,285.2,WeatherDisplay:10.37,2013-01-03 18:43:00,
2013-01-03 10:48:00,35.2,30.0,30.13,East,85,8.3,9.2,81,0.00,CLR,,0.00,293.3,WeatherDisplay:10.37,2013-01-03 18:48:00,
2013-01-03 10:53:00,35.6,30.1,30.12,East,82,8.2,9.2,80,0.00,CLR,,0.00,299.0,WeatherDisplay:10.37,2013-01-03 18:53:00,
2013-01-03 10:58:00,35.9,30.4,30.12,East,82,7.9,8.1,80,0.00,CLR,,0.00,304.8,WeatherDisplay:10.37,2013-01-03 18:58:00,
2013-01-03 11:03:00,36.3,30.7,30.12,East,96,3.5,5.8,80,0.00,CLR,,0.00,311.7,WeatherDisplay:10.37,2013-01-03 19:03:00,
2013-01-03 11:08:00,36.6,31.0,30.12,ESE,111,3.0,4.6,80,0.00,CLR,,0.00,317.4,WeatherDisplay:10.37,2013-01-03 19:08:00,
2013-01-03 11:13:00,36.9,31.3,30.12,ESE,110,5.8,6.9,80,0.00,CLR,,0.00,323.1,WeatherDisplay:10.37,2013-01-03 19:13:00,
2013-01-03 11:18:00,37.3,31.7,30.12,ESE,111,4.1,5.8,80,0.00,CLR,,0.00,330.0,WeatherDisplay:10.37,2013-01-03 19:18:00,
2013-01-03 11:55:00,40.7,34.1,30.11,ENE,68,0.0,0.0,77,0.00,CLR,,0.00,355.3,WeatherDisplay:10.37,2013-01-03 19:55:00,
2013-01-03 12:00:00,41.3,34.0,30.11,ESE,104,2.6,2.6,75,0.00,CLR,,0.00,357.7,WeatherDisplay:10.37,2013-01-03 20:00:00,
2013-01-03 12:05:00,41.8,33.1,30.11,South,182,1.4,3.5,71,0.00,CLR,,0.00,360.0,WeatherDisplay:10.37,2013-01-03 20:05:00,
2013-01-03 12:10:00,42.2,33.1,30.11,SE,138,4.4,5.8,70,0.00,CLR,,0.00,362.3,WeatherDisplay:10.37,2013-01-03 20:10:00,
2013-01-03 12:15:00,42.5,32.7,30.11,SSE,147,5.6,5.8,68,0.00,CLR,,0.00,362.3,WeatherDisplay:10.37,2013-01-03 20:15:00,
2013-01-03 12:20:00,42.7,31.8,30.11,SE,138,2.0,5.6,65,0.00,CLR,,0.00,362.3,WeatherDisplay:10.37,2013-01-03 20:20:00,
2013-01-03 12:25:00,42.9,32.3,30.10,SE,125,6.2,6.7,66,0.00,CLR,,0.00,363.4,WeatherDisplay:10.37,2013-01-03 20:25:00,
2013-01-03 12:30:00,43.1,32.5,30.10,SE,127,7.4,9.0,66,0.00,CLR,,0.00,362.3,WeatherDisplay:10.37,2013-01-03 20:30:00,
2013-01-03 12:35:00,43.1,31.8,30.10,ESE,111,6.9,6.9,64,0.00,CLR,,0.00,362.3,WeatherDisplay:10.37,2013-01-03 20:35:00,
2013-01-03 12:40:00,43.2,32.2,30.10,ESE,115,4.1,6.9,65,0.00,CLR,,0.00,362.3,WeatherDisplay:10.37,2013-01-03 20:40:00,
2013-01-03 12:45:00,43.3,32.3,30.10,ESE,114,5.6,5.8,65,0.00,CLR,,0.00,360.0,WeatherDisplay:10.37,2013-01-03 20:45:00,
2013-01-03 12:50:00,43.4,32.0,30.09,ESE,116,5.7,6.9,64,0.00,CLR,,0.00,357.7,WeatherDisplay:10.37,2013-01-03 20:50:00,
2013-01-03 12:55:00,43.5,31.8,30.09,East,100,8.3,11.5,63,0.00,CLR,,0.00,355.3,WeatherDisplay:10.37,2013-01-03 20:55:00,
2013-01-03 13:00:00,43.6,31.8,30.09,ESE,111,6.1,8.1,63,0.00,CLR,,0.00,351.9,WeatherDisplay:10.37,2013-01-03 21:00:00,
2013-01-03 13:05:00,43.7,31.9,30.09,East,100,7.6,10.4,63,0.00,CLR,,0.00,347.3,WeatherDisplay:10.37,2013-01-03 21:05:00,
2013-01-03 13:10:00,43.7,32.3,30.09,ESE,118,6.8,8.1,64,0.00,CLR,,0.00,346.1,WeatherDisplay:10.37,2013-01-03 21:10:00,
2013-01-03 13:15:00,43.7,32.7,30.09,SE,125,5.8,6.9,65,0.00,CLR,,0.00,339.3,WeatherDisplay:10.37,2013-01-03 21:15:00,
2013-01-03 13:20:00,43.8,32.4,30.08,ESE,111,6.1,8.1,64,0.00,CLR,,0.00,338.1,WeatherDisplay:10.37,2013-01-03 21:20:00,
2013-01-03 13:25:00,44.0,33.0,30.08,ESE,115,5.9,6.9,65,0.00,CLR,,0.00,331.2,WeatherDisplay:10.37,2013-01-03 21:25:00,
2013-01-03 13:30:00,44.1,32.3,30.08,SE,127,5.3,5.8,63,0.00,CLR,,0.00,327.8,WeatherDisplay:10.37,2013-01-03 21:30:00,
2013-01-03 13:35:00,44.2,32.4,30.09,ESE,115,5.3,5.8,63,0.00,CLR,,0.00,320.8,WeatherDisplay:10.37,2013-01-03 21:35:00,
2013-01-03 13:40:00,44.4,32.6,30.09,SE,125,4.3,5.8,63,0.00,CLR,,0.00,315.1,WeatherDisplay:10.37,2013-01-03 21:40:00,
2013-01-03 13:45:00,44.5,31.9,30.08,East,80,4.6,6.9,61,0.00,CLR,,0.00,309.4,WeatherDisplay:10.37,2013-01-03 21:45:00,
2013-01-03 13:50:00,44.5,31.5,30.08,ENE,71,5.8,6.9,60,0.00,CLR,,0.00,301.3,WeatherDisplay:10.37,2013-01-03 21:50:00,
2013-01-03 13:55:00,44.5,31.1,30.09,ESE,111,2.3,4.6,59,0.00,CLR,,0.00,295.5,WeatherDisplay:10.37,2013-01-03 21:55:00,
2013-01-03 14:00:00,44.6,31.6,30.09,ESE,113,4.4,4.6,60,0.00,CLR,,0.00,287.5,WeatherDisplay:10.37,2013-01-03 22:00:00,
2013-01-03 14:06:00,44.6,32.0,30.09,ESE,117,3.3,4.6,61,0.00,CLR,,0.00,279.4,WeatherDisplay:10.37,2013-01-03 22:06:00,
2013-01-03 14:11:00,44.8,32.2,30.09,ENE,73,4.4,4.6,61,0.00,CLR,,0.00,272.5,WeatherDisplay:10.37,2013-01-03 22:11:00,
2013-01-03 14:16:00,45.0,32.0,30.09,ESE,105,3.0,3.5,60,0.00,CLR,,0.00,263.3,WeatherDisplay:10.37,2013-01-03 22:16:00,
2013-01-03 14:21:00,45.2,32.1,30.08,ESE,113,3.8,4.6,60,0.00,CLR,,0.00,256.4,WeatherDisplay:10.37,2013-01-03 22:21:00,
2013-01-03 14:26:00,45.4,32.3,30.08,SE,131,3.5,4.6,60,0.00,CLR,,0.00,248.4,WeatherDisplay:10.37,2013-01-03 22:26:00,
2013-01-03 14:31:00,45.4,31.1,30.08,ESE,114,2.7,3.5,57,0.00,CLR,,0.00,213.9,WeatherDisplay:10.37,2013-01-03 22:31:00,
2013-01-03 14:36:00,45.4,31.5,30.09,SE,133,6.4,6.9,58,0.00,CLR,,0.00,77.1,WeatherDisplay:10.37,2013-01-03 22:36:00,
2013-01-03 14:41:00,45.1,32.1,30.09,ESE,111,5.2,5.8,60,0.00,CLR,,0.00,109.2,WeatherDisplay:10.37,2013-01-03 22:41:00,
2013-01-03 14:46:00,44.8,31.8,30.09,East,89,3.8,3.8,60,0.00,CLR,,0.00,120.8,WeatherDisplay:10.37,2013-01-03 22:46:00,
2013-01-03 14:51:00,44.4,31.4,30.09,ENE,71,5.0,5.8,60,0.00,CLR,,0.00,66.7,WeatherDisplay:10.37,2013-01-03 22:51:00,
2013-01-03 14:56:00,44.1,31.1,30.09,NE,48,5.1,5.8,60,0.00,CLR,,0.00,74.8,WeatherDisplay:10.37,2013-01-03 22:56:00,
2013-01-03 15:01:00,43.6,31.0,30.09,ESE,103,6.5,8.1,61,0.00,CLR,,0.00,112.7,WeatherDisplay:10.37,2013-01-03 23:01:00,
2013-01-03 15:06:00,43.1,30.6,30.09,East,81,6.1,6.9,61,0.00,CLR,,0.00,151.8,WeatherDisplay:10.37,2013-01-03 23:06:00,
2013-01-03 15:11:00,42.6,30.1,30.09,East,84,5.6,6.9,61,0.00,CLR,,0.00,69.0,WeatherDisplay:10.37,2013-01-03 23:11:00,
2013-01-03 15:16:00,42.1,29.6,30.10,ESE,110,5.4,6.9,61,0.00,CLR,,0.00,61.0,WeatherDisplay:10.37,2013-01-03 23:16:00,
2013-01-03 15:21:00,41.4,29.4,30.09,ENE,73,8.3,9.2,62,0.00,CLR,,0.00,54.0,WeatherDisplay:10.37,2013-01-03 23:21:00,
2013-01-03 15:26:00,41.0,29.4,30.09,East,92,6.4,8.1,63,0.00,CLR,,0.00,48.3,WeatherDisplay:10.37,2013-01-03 23:26:00,
2013-01-03 15:31:00,40.6,29.4,30.09,East,94,8.7,10.4,64,0.00,CLR,,0.00,42.6,WeatherDisplay:10.37,2013-01-03 23:31:00,
2013-01-03 15:36:00,40.1,29.3,30.08,East,98,6.6,6.9,65,0.00,CLR,,0.00,40.3,WeatherDisplay:10.37,2013-01-03 23:36:00,
2013-01-03 15:41:00,39.6,28.8,30.08,ENE,77,11.3,11.5,65,0.00,CLR,,0.00,46.0,WeatherDisplay:10.37,2013-01-03 23:41:00,
2013-01-03 15:46:00,39.3,28.9,30.08,East,91,7.5,9.2,66,0.00,CLR,,0.00,50.6,WeatherDisplay:10.37,2013-01-03 23:46:00,
2013-01-03 15:51:00,38.9,28.9,30.08,East,90,9.3,12.7,67,0.00,CLR,,0.00,40.3,WeatherDisplay:10.37,2013-01-03 23:51:00,
2013-01-03 15:56:00,38.6,28.6,30.09,ESE,117,5.5,6.9,67,0.00,CLR,,0.00,26.5,WeatherDisplay:10.37,2013-01-03 23:56:00,
2013-01-03 16:01:00,38.3,28.7,30.09,ESE,102,6.8,8.1,68,0.00,CLR,,0.00,20.7,WeatherDisplay:10.37,2013-01-04 00:01:00,
2013-01-03 16:06:00,38.1,28.8,30.10,East,95,4.3,5.8,69,0.00,CLR,,0.00,18.4,WeatherDisplay:10.37,2013-01-04 00:06:00,
2013-01-03 16:11:00,37.9,29.0,30.10,SE,141,6.7,8.1,70,0.00,CLR,,0.00,13.8,WeatherDisplay:10.37,2013-01-04 00:11:00,
2013-01-03 16:16:00,37.7,29.2,30.10,East,98,7.3,8.1,71,0.00,CLR,,0.00,10.4,WeatherDisplay:10.37,2013-01-04 00:16:00,
2013-01-03 16:21:00,37.4,28.9,30.10,ESE,119,5.4,11.5,71,0.00,CLR,,0.00,8.0,WeatherDisplay:10.37,2013-01-04 00:21:00,
2013-01-03 16:26:00,37.2,28.7,30.10,East,85,4.0,6.9,71,0.00,CLR,,0.00,5.8,WeatherDisplay:10.37,2013-01-04 00:26:00,
2013-01-03 16:31:00,37.0,28.5,30.10,ENE,74,7.6,8.1,71,0.00,CLR,,0.00,5.8,WeatherDisplay:10.37,2013-01-04 00:31:00,
2013-01-03 16:36:00,36.9,28.4,30.11,ESE,113,0.0,1.1,71,0.00,CLR,,0.00,5.8,WeatherDisplay:10.37,2013-01-04 00:36:00,
2013-01-03 16:41:00,36.9,28.4,30.11,ESE,123,1.0,2.2,71,0.00,CLR,,0.00,0.0,WeatherDisplay:10.37,2013-01-04 00:41:00,
2013-01-03 16:46:00,36.8,28.3,30.11,ESE,102,3.6,3.6,71,0.00,CLR,,0.00,0.0,WeatherDisplay:10.37,2013-01-04 00:46:00,
2013-01-03 16:51:00,36.7,28.2,30.11,East,100,0.3,2.3,71,0.00,CLR,,0.00,0.0,WeatherDisplay:10.37,2013-01-04 00:51:00,
2013-01-03 16:56:00,36.6,28.4,30.11,East,87,4.7,4.7,72,0.00,CLR,,0.00,0.0,WeatherDisplay:10.37,2013-01-04 00:56:00,
2013-01-03 17:01:00,36.5,28.3,30.10,East,82,7.7,8.1,72,0.00,FEW,,0.00,0.0,WeatherDisplay:10.37,2013-01-04 01:01:00,
2013-01-03 17:06:00,36.3,28.2,30.10,ENE,60,11.8,11.8,72,0.00,FEW,,0.00,0.0,WeatherDisplay:10.37,2013-01-04 01:06:00,
2013-01-03 17:11:00,36.2,28.1,30.10,ENE,66,17.2,18.4,72,0.00,FEW,,0.00,0.0,WeatherDisplay:10.37,2013-01-04 01:11:00,
2013-01-03 17:16:00,36.2,28.1,30.09,ENE,59,16.6,17.3,72,0.00,CLR,,0.00,0.0,WeatherDisplay:10.37,2013-01-04 01:16:00,
2013-01-03 17:21:00,36.1,27.6,30.09,NE,41,12.1,14.7,71,0.00,CLR,,0.00,0.0,WeatherDisplay:10.37,2013-01-04 01:21:00,
2013-01-03 17:26:00,36.1,27.3,30.08,NE,55,12.4,15.0,70,0.00,CLR,,0.00,0.0,WeatherDisplay:10.37,2013-01-04 01:26:00,
2013-01-03 17:31:00,36.2,27.4,30.09,NE,40,12.9,15.0,70,0.00,CLR,,0.00,0.0,WeatherDisplay:10.37,2013-01-04 01:31:00,
2013-01-03 17:36:00,36.2,27.4,30.09,NE,52,13.0,16.1,70,0.00,CLR,,0.00,0.0,WeatherDisplay:10.37,2013-01-04 01:36:00,
2013-01-03 17:41:00,36.3,27.5,30.09,NE,42,12.9,13.8,70,0.00,CLR,,0.00,0.0,WeatherDisplay:10.37,2013-01-04 01:41:00,
2013-01-03 17:46:00,36.2,27.7,30.09,NE,56,10.5,11.5,71,0.00,CLR,,0.00,0.0,WeatherDisplay:10.37,2013-01-04 01:46:00,
2013-01-03 17:51:00,36.3,27.8,30.09,ENE,57,10.4,12.7,71,0.00,CLR,,0.00,0.0,WeatherDisplay:10.37,2013-01-04 01:51:00,
2013-01-03 17:56:00,36.3,28.2,30.09,ENE,69,14.8,16.1,72,0.00,CLR,,0.00,0.0,WeatherDisplay:10.37,2013-01-04 01:56:00,
2013-01-03 18:01:00,36.3,28.2,30.09,ENE,63,12.9,13.8,72,0.00,CLR,,0.00,0.0,WeatherDisplay:10.37,2013-01-04 02:01:00,
2013-01-03 18:06:00,36.3,28.2,30.09,NE,51,13.2,17.3,72,0.00,CLR,,0.00,0.0,WeatherDisplay:10.37,2013-01-04 02:06:00,
2013-01-03 18:11:00,36.3,28.2,30.08,ENE,57,17.2,17.3,72,0.00,CLR,,0.00,0.0,WeatherDisplay:10.37,2013-01-04 02:11:00,
2013-01-03 18:16:00,36.2,27.7,30.08,ENE,59,16.7,17.3,71,0.00,CLR,,0.00,0.0,WeatherDisplay:10.37,2013-01-04 02:16:00,
2013-01-03 18:21:00,36.1,27.6,30.08,NE,54,16.5,18.4,71,0.00,CLR,,0.00,0.0,WeatherDisplay:10.37,2013-01-04 02:21:00,
2013-01-03 18:26:00,36.1,27.6,30.08,NE,55,13.9,13.9,71,0.00,CLR,,0.00,0.0,WeatherDisplay:10.37,2013-01-04 02:26:00,
2013-01-03 18:32:00,36.1,28.0,30.08,ENE,70,12.8,16.1,72,0.00,CLR,,0.00,0.0,WeatherDisplay:10.37,2013-01-04 02:32:00,
2013-01-03 18:36:00,36.1,28.0,30.08,ENE,67,11.7,15.0,72,0.00,CLR,,0.00,0.0,WeatherDisplay:10.37,2013-01-04 02:36:00,
2013-01-03 18:42:00,36.2,28.1,30.09,ENE,67,13.9,17.3,72,0.00,CLR,,0.00,0.0,WeatherDisplay:10.37,2013-01-04 02:42:00,
2013-01-03 18:47:00,36.3,28.5,30.10,ENE,78,15.9,17.3,73,0.00,-RA,,0.00,0.0,WeatherDisplay:10.37,2013-01-04 02:47:00,
2013-01-03 18:52:00,36.3,28.8,30.10,ENE,59,19.1,20.7,74,0.00,-RA,,0.00,0.0,WeatherDisplay:10.37,2013-01-04 02:52:00,
2013-01-03 18:57:00,36.2,29.1,30.09,NE,34,14.1,18.1,75,0.01,-RA,,0.01,0.0,WeatherDisplay:10.37,2013-01-04 02:57:00,
2013-01-03 19:02:00,36.0,29.2,30.09,NE,38,17.6,21.9,76,0.01,-RA,,0.01,0.0,WeatherDisplay:10.37,2013-01-04 03:02:00,
2013-01-03 19:07:00,35.9,29.4,30.09,NE,52,19.2,19.6,77,0.01,-RA,,0.01,0.0,WeatherDisplay:10.37,2013-01-04 03:07:00,
2013-01-03 19:12:00,35.7,29.5,30.09,ENE,57,19.7,20.7,78,0.01,-RA,,0.01,0.0,WeatherDisplay:10.37,2013-01-04 03:12:00,
2013-01-03 19:17:00,35.4,29.9,30.09,NE,40,16.8,19.6,80,0.01,-RA,,0.01,0.0,WeatherDisplay:10.37,2013-01-04 03:17:00,
2013-01-03 19:22:00,35.2,30.0,30.10,NE,43,15.3,17.3,81,0.02,-RA,,0.02,0.0,WeatherDisplay:10.37,2013-01-04 03:22:00,
2013-01-03 19:27:00,35.0,30.1,30.09,ENE,58,17.3,18.4,82,0.02,-RA,,0.02,0.0,WeatherDisplay:10.37,2013-01-04 03:27:00,
2013-01-03 19:32:00,34.9,30.3,30.09,NE,45,17.0,17.3,83,0.02,-RA,,0.03,0.0,WeatherDisplay:10.37,2013-01-04 03:32:00,
2013-01-03 19:37:00,34.8,30.8,30.10,NE,46,9.5,11.5,85,0.03,-RA,,0.03,0.0,WeatherDisplay:10.37,2013-01-04 03:37:00,
2013-01-03 19:42:00,34.8,30.8,30.10,NE,53,8.5,11.5,85,0.03,-RA,,0.03,0.0,WeatherDisplay:10.37,2013-01-04 03:42:00,
2013-01-03 19:47:00,34.7,30.7,30.10,ENE,61,4.4,5.8,85,0.03,-RA,,0.03,0.0,WeatherDisplay:10.37,2013-01-04 03:47:00,
2013-01-03 19:52:00,34.6,30.9,30.09,NNE,24,16.7,17.3,86,0.03,-RA,,0.03,0.0,WeatherDisplay:10.37,2013-01-04 03:52:00,
2013-01-03 19:57:00,34.6,31.1,30.09,ENE,61,9.8,12.7,87,0.03,-RA,,0.04,0.0,WeatherDisplay:10.37,2013-01-04 03:57:00,
2013-01-03 20:02:00,34.5,31.3,30.08,NE,44,16.1,18.4,88,0.03,-RA,,0.04,0.0,WeatherDisplay:10.37,2013-01-04 04:02:00,
2013-01-03 20:07:00,34.5,31.3,30.08,ENE,60,16.3,18.4,88,0.03,-RA,,0.04,0.0,WeatherDisplay:10.37,2013-01-04 04:07:00,
2013-01-03 20:12:00,34.5,31.3,30.08,NE,51,18.6,21.9,88,0.03,-RA,,0.04,0.0,WeatherDisplay:10.37,2013-01-04 04:12:00,
2013-01-03 20:17:00,34.4,31.5,30.09,NE,55,15.5,17.3,89,0.03,-RA,,0.04,0.0,WeatherDisplay:10.37,2013-01-04 04:17:00,
2013-01-03 20:22:00,34.4,31.5,30.10,East,84,6.1,10.4,89,0.02,-RA,,0.04,0.0,WeatherDisplay:10.37,2013-01-04 04:22:00,
2013-01-03 20:27:00,34.4,31.5,30.10,SSE,159,0.3,3.5,89,0.02,-RA,,0.04,0.0,WeatherDisplay:10.37,2013-01-04 04:27:00,
2013-01-03 20:32:00,34.4,31.5,30.10,ENE,67,4.8,9.2,89,0.02,-RA,,0.04,0.0,WeatherDisplay:10.37,2013-01-04 04:32:00,
2013-01-03 20:37:00,34.5,31.9,30.11,ESE,118,6.8,12.3,90,0.01,-RA,,0.04,0.0,WeatherDisplay:10.37,2013-01-04 04:37:00,
2013-01-03 20:42:00,34.5,31.9,30.11,SE,131,14.4,15.0,90,0.01,-RA,,0.04,0.0,WeatherDisplay:10.37,2013-01-04 04:42:00,
2013-01-03 20:47:00,34.4,31.8,30.11,ESE,110,10.1,13.8,90,0.01,-RA,,0.04,0.0,WeatherDisplay:10.37,2013-01-04 04:47:00,
2013-01-03 20:52:00,34.3,31.4,30.11,East,84,7.3,10.4,89,0.01,-RA,,0.04,0.0,WeatherDisplay:10.37,2013-01-04 04:52:00,
2013-01-03 20:57:00,34.2,31.6,30.10,NE,52,12.2,13.8,90,0.00,-RA,,0.04,0.0,WeatherDisplay:10.37,2013-01-04 04:57:00,
2013-01-03 21:00:00,34.1,31.5,30.10,ENE,63,17.5,17.5,90,0.00,-RA,,0.04,0.0,WeatherDisplay:10.37,2013-01-04 05:00:00,
2013-01-03 21:01:00,34.1,31.5,30.10,NE,51,17.3,17.3,90,0.00,-RA,,0.04,0.0,WeatherDisplay:10.37,2013-01-04 05:01:00,
2013-01-03 21:03:00,34.1,31.5,30.10,NE,48,17.3,17.3,90,0.00,-RA,,0.04,0.0,WeatherDisplay:10.37,2013-01-04 05:03:00,
2013-01-03 21:08:00,34.1,31.5,30.10,ENE,61,16.0,16.1,90,0.00,-RA,,0.04,0.0,WeatherDisplay:10.37,2013-01-04 05:08:00,
2013-01-03 21:13:00,34.0,31.4,30.10,NE,48,10.0,11.5,90,0.00,-RA,,0.04,0.0,WeatherDisplay:10.37,2013-01-04 05:13:00,
2013-01-03 21:18:00,34.0,31.4,30.10,NE,55,6.7,10.4,90,0.00,BKN,,0.04,0.0,WeatherDisplay:10.37,2013-01-04 05:18:00,
2013-01-03 21:23:00,34.0,31.7,30.10,NE,40,14.5,17.3,91,0.00,BKN,,0.04,0.0,WeatherDisplay:10.37,2013-01-04 05:23:00,
2013-01-03 21:28:00,34.1,31.8,30.10,NE,47,14.0,16.1,91,0.00,BKN,,0.04,0.0,WeatherDisplay:10.37,2013-01-04 05:28:00,
2013-01-03 21:33:00,34.0,31.7,30.10,NE,43,14.5,15.0,91,0.00,BKN,,0.04,0.0,WeatherDisplay:10.37,2013-01-04 05:33:00,
2013-01-03 21:38:00,34.0,31.7,30.10,NE,50,11.3,17.3,91,0.00,BKN,,0.04,0.0,WeatherDisplay:10.37,2013-01-04 05:38:00,
2013-01-03 21:43:00,34.1,31.8,30.10,NE,44,10.7,12.7,91,0.00,BKN,,0.04,0.0,WeatherDisplay:10.37,2013-01-04 05:43:00,
2013-01-03 21:48:00,34.1,31.8,30.10,NNE,24,9.2,11.5,91,0.00,OVC,,0.04,0.0,WeatherDisplay:10.37,2013-01-04 05:48:00,
2013-01-03 21:53:00,34.1,32.0,30.10,East,96,8.9,10.2,92,0.00,OVC,,0.04,0.0,WeatherDisplay:10.37,2013-01-04 05:53:00,
2013-01-03 21:58:00,34.2,32.1,30.10,ENE,60,4.9,6.9,92,0.00,OVC,,0.04,0.0,WeatherDisplay:10.37,2013-01-04 05:58:00,
2013-01-03 22:03:00,34.3,32.2,30.10,NE,46,7.4,11.3,92,0.00,OVC,,0.04,0.0,WeatherDisplay:10.37,2013-01-04 06:03:00,
2013-01-03 22:08:00,34.3,32.2,30.10,ENE,75,9.8,10.4,92,0.00,OVC,,0.04,0.0,WeatherDisplay:10.37,2013-01-04 06:08:00,
2013-01-03 22:13:00,34.3,32.2,30.10,ENE,69,9.1,13.8,92,0.00,OVC,,0.04,0.0,WeatherDisplay:10.37,2013-01-04 06:13:00,
2013-01-03 22:18:00,34.4,32.3,30.10,ENE,57,13.5,13.8,92,0.00,OVC,,0.04,0.0,WeatherDisplay:10.37,2013-01-04 06:18:00,
2013-01-03 22:23:00,34.4,32.3,30.10,NE,49,7.7,11.5,92,0.00,OVC,,0.04,0.0,WeatherDisplay:10.37,2013-01-04 06:23:00,
2013-01-03 22:28:00,34.4,32.3,30.10,NE,56,8.8,10.4,92,0.00,OVC,,0.04,0.0,WeatherDisplay:10.37,2013-01-04 06:28:00,
2013-01-03 22:33:00,34.3,32.2,30.11,NE,47,13.4,13.4,92,0.00,OVC,,0.04,0.0,WeatherDisplay:10.37,2013-01-04 06:33:00,
2013-01-03 22:38:00,34.3,32.2,30.11,NE,51,7.8,13.8,92,0.00,OVC,,0.04,0.0,WeatherDisplay:10.37,2013-01-04 06:38:00,
2013-01-03 22:43:00,34.3,32.2,30.11,ENE,63,8.4,11.5,92,0.00,OVC,,0.04,0.0,WeatherDisplay:10.37,2013-01-04 06:43:00,
2013-01-03 22:48:00,34.3,32.2,30.11,NE,48,13.8,16.1,92,0.00,OVC,,0.04,0.0,WeatherDisplay:10.37,2013-01-04 06:48:00,
2013-01-03 22:53:00,34.3,32.2,30.11,NE,46,17.3,23.0,92,0.00,OVC,,0.04,0.0,WeatherDisplay:10.37,2013-01-04 06:53:00,
2013-01-03 22:58:00,34.2,31.9,30.11,NE,56,13.8,15.0,91,0.00,OVC,,0.04,0.0,WeatherDisplay:10.37,2013-01-04 06:58:00,
2013-01-03 23:03:00,34.2,31.9,30.11,NE,53,16.8,19.6,91,0.00,OVC,,0.04,0.0,WeatherDisplay:10.37,2013-01-04 07:03:00,
2013-01-03 23:08:00,34.1,31.8,30.11,ENE,57,19.2,19.2,91,0.00,OVC,,0.04,0.0,WeatherDisplay:10.37,2013-01-04 07:08:00,
2013-01-03 23:13:00,34.1,31.8,30.11,NE,53,15.5,17.3,91,0.00,OVC,,0.04,0.0,WeatherDisplay:10.37,2013-01-04 07:13:00,
2013-01-03 23:18:00,34.0,31.7,30.12,NE,53,15.6,17.3,91,0.00,OVC,,0.04,0.0,WeatherDisplay:10.37,2013-01-04 07:18:00,
2013-01-03 23:23:00,34.0,31.7,30.11,ENE,61,15.3,17.3,91,0.00,OVC,,0.04,0.0,WeatherDisplay:10.37,2013-01-04 07:23:00,
2013-01-03 23:28:00,33.9,31.6,30.12,NE,48,15.5,17.3,91,0.00,OVC,,0.04,0.0,WeatherDisplay:10.37,2013-01-04 07:28:00,
2013-01-03 23:33:00,33.9,31.6,30.12,ENE,66,13.1,16.1,91,0.00,OVC,,0.04,0.0,WeatherDisplay:10.37,2013-01-04 07:33:00,
2013-01-03 23:38:00,34.0,31.7,30.11,NE,56,15.5,18.1,91,0.01,RA,,0.05,0.0,WeatherDisplay:10.37,2013-01-04 07:38:00,
2013-01-03 23:43:00,33.9,31.6,30.11,NE,56,14.9,16.1,91,0.01,RA,,0.05,0.0,WeatherDisplay:10.37,2013-01-04 07:43:00,
2013-01-03 23:48:00,34.0,31.7,30.11,ENE,57,15.4,15.8,91,0.01,-RA,,0.05,0.0,WeatherDisplay:10.37,2013-01-04 07:48:00,
2013-01-03 23:53:00,34.0,31.7,30.11,ENE,60,16.8,21.9,91,0.01,-RA,,0.05,0.0,WeatherDisplay:10.37,2013-01-04 07:53:00,
2013-01-03 23:58:00,34.1,31.8,30.11,ENE,62,14.8,16.1,91,0.01,-RA,,0.05,0.0,WeatherDisplay:10.37,2013-01-04 07:58:00,